PWSweather.com
Personal Weather Stations
Station Observations
IBAVARIA50
Munich, PlieningDE 85652

MunichPlieningDE 85652

Lat: 48.19916153, Lon: 11.79794312

Elevation: 504

Station Type: Davis Vantage Pro2

http://wetterstation-pliening.info

High Low Average
Temperature 73.1°F22.8°C 59.2°F15.1°C 63.9°F17.7°C
Dew Point 60.5°F15.8°C 56.3°F13.5°C 58.5°F14.7°C
Winds 6.0 mph 9.7 kmh Calm Calm 1.0 mph SSW1.6 kmh SSW
Wind Gusts 10.0 mph16.1 kmh -- 3.0 mph4.8 kmh
Humidity 94% 61% 83%
Pressure 30.10 in1019.3 mb 29.99 in1015.6 mb -
Precipitation 0.44 in11.2 mm - -
Hour Temp Dew Point Humidity Winds Wind Gusts Pressure Precip Precip Rate Daily Precip Total
12:00 AM 64.0°F17.8°C 60.0°F15.6°C 87% 2.0 mph W3.2 kmh W 3.0 mph4.8 kmh 29.99 in1015.6 mb 0.00 in0.0 mm 0.00 in0.0 mm 0.00 in0.0 mm
12:05 AM 64.0°F17.8°C 60.0°F15.6°C 87% 3.0 mph W4.8 kmh W 3.0 mph4.8 kmh 29.99 in1015.6 mb 0.00 in0.0 mm 0.00 in0.0 mm 0.00 in0.0 mm
12:10 AM 63.8°F17.7°C 59.8°F15.4°C 87% 1.0 mph W1.6 kmh W 3.0 mph4.8 kmh 29.99 in1015.6 mb 0.00 in0.0 mm 0.00 in0.0 mm 0.00 in0.0 mm
12:15 AM 63.8°F17.7°C 59.8°F15.4°C 87% 1.0 mph WNW1.6 kmh WNW 3.0 mph4.8 kmh 29.99 in1015.6 mb 0.00 in0.0 mm 0.00 in0.0 mm 0.00 in0.0 mm
12:20 AM 63.7°F17.6°C 60.0°F15.6°C 88% 3.0 mph WNW4.8 kmh WNW 4.0 mph6.4 kmh 29.99 in1015.6 mb 0.00 in0.0 mm 0.00 in0.0 mm 0.00 in0.0 mm
12:25 AM 63.8°F17.7°C 60.1°F15.6°C 88% 2.0 mph WNW3.2 kmh WNW 3.0 mph4.8 kmh 30.00 in1015.9 mb 0.00 in0.0 mm 0.00 in0.0 mm 0.00 in0.0 mm
12:30 AM 63.7°F17.6°C 60.0°F15.6°C 88% Calm Calm 3.0 mph4.8 kmh 30.00 in1015.9 mb 0.00 in0.0 mm 0.00 in0.0 mm 0.00 in0.0 mm
12:35 AM 63.7°F17.6°C 60.0°F15.6°C 88% 2.0 mph WSW3.2 kmh WSW 4.0 mph6.4 kmh 30.00 in1015.9 mb 0.00 in0.0 mm 0.00 in0.0 mm 0.00 in0.0 mm
12:40 AM 63.7°F17.6°C 59.7°F15.4°C 87% 2.0 mph W3.2 kmh W 6.0 mph9.7 kmh 30.00 in1015.9 mb 0.00 in0.0 mm 0.00 in0.0 mm 0.00 in0.0 mm
12:45 AM 63.8°F17.7°C 59.8°F15.4°C 87% 4.0 mph WSW6.4 kmh WSW 7.0 mph11.3 kmh 30.00 in1015.9 mb 0.00 in0.0 mm 0.00 in0.0 mm 0.00 in0.0 mm
12:50 AM 63.8°F17.7°C 59.8°F15.4°C 87% 3.0 mph WSW4.8 kmh WSW 5.0 mph8.0 kmh 30.00 in1015.9 mb 0.00 in0.0 mm 0.00 in0.0 mm 0.00 in0.0 mm
12:55 AM 63.8°F17.7°C 59.5°F15.3°C 86% 3.0 mph WSW4.8 kmh WSW 5.0 mph8.0 kmh 30.00 in1015.9 mb 0.00 in0.0 mm 0.00 in0.0 mm 0.00 in0.0 mm
01:00 AM 63.8°F17.7°C 59.8°F15.4°C 87% 3.0 mph W4.8 kmh W 4.0 mph6.4 kmh 30.00 in1015.9 mb 0.00 in0.0 mm 0.00 in0.0 mm 0.00 in0.0 mm
01:05 AM 63.8°F17.7°C 59.8°F15.4°C 87% 3.0 mph W4.8 kmh W 4.0 mph6.4 kmh 30.00 in1015.9 mb 0.00 in0.0 mm 0.00 in0.0 mm 0.00 in0.0 mm
01:10 AM 63.8°F17.7°C 59.8°F15.4°C 87% 2.0 mph W3.2 kmh W 4.0 mph6.4 kmh 30.00 in1015.9 mb 0.00 in0.0 mm 0.00 in0.0 mm 0.00 in0.0 mm
01:15 AM 63.7°F17.6°C 59.7°F15.4°C 87% 2.0 mph WSW3.2 kmh WSW 4.0 mph6.4 kmh 30.00 in1015.9 mb 0.00 in0.0 mm 0.00 in0.0 mm 0.00 in0.0 mm
01:20 AM 63.7°F17.6°C 60.0°F15.6°C 88% 2.0 mph W3.2 kmh W 3.0 mph4.8 kmh 30.00 in1015.9 mb 0.00 in0.0 mm 0.00 in0.0 mm 0.00 in0.0 mm
01:25 AM 63.7°F17.6°C 60.0°F15.6°C 88% 3.0 mph SW4.8 kmh SW 4.0 mph6.4 kmh 30.00 in1015.9 mb 0.00 in0.0 mm 0.00 in0.0 mm 0.00 in0.0 mm
01:30 AM 63.8°F17.7°C 60.1°F15.6°C 88% 2.0 mph WSW3.2 kmh WSW 3.0 mph4.8 kmh 30.00 in1015.9 mb 0.00 in0.0 mm 0.00 in0.0 mm 0.00 in0.0 mm
01:35 AM 63.8°F17.7°C 60.1°F15.6°C 88% 4.0 mph W6.4 kmh W 5.0 mph8.0 kmh 30.00 in1015.9 mb 0.00 in0.0 mm 0.00 in0.0 mm 0.00 in0.0 mm
01:40 AM 63.8°F17.7°C 60.1°F15.6°C 88% 2.0 mph W3.2 kmh W 6.0 mph9.7 kmh 30.00 in1015.9 mb 0.00 in0.0 mm 0.00 in0.0 mm 0.00 in0.0 mm
01:45 AM 63.9°F17.7°C 60.5°F15.8°C 89% 2.0 mph WNW3.2 kmh WNW 5.0 mph8.0 kmh 30.00 in1015.9 mb 0.00 in0.0 mm 0.00 in0.0 mm 0.00 in0.0 mm
01:50 AM 63.9°F17.7°C 60.5°F15.8°C 89% 1.0 mph WNW1.6 kmh WNW 6.0 mph9.7 kmh 30.00 in1015.9 mb 0.00 in0.0 mm 0.00 in0.0 mm 0.00 in0.0 mm
01:55 AM 63.8°F17.7°C 60.4°F15.8°C 89% 2.0 mph WSW3.2 kmh WSW 6.0 mph9.7 kmh 30.00 in1015.9 mb 0.00 in0.0 mm 0.00 in0.0 mm 0.00 in0.0 mm
02:00 AM 63.8°F17.7°C 60.4°F15.8°C 89% 2.0 mph WNW3.2 kmh WNW 4.0 mph6.4 kmh 30.00 in1015.9 mb 0.00 in0.0 mm 0.00 in0.0 mm 0.00 in0.0 mm
02:05 AM 63.6°F17.6°C 60.2°F15.7°C 89% 4.0 mph NW6.4 kmh NW 4.0 mph6.4 kmh 29.99 in1015.6 mb 0.00 in0.0 mm 0.00 in0.0 mm 0.00 in0.0 mm
02:10 AM 63.5°F17.5°C 60.1°F15.6°C 89% 1.0 mph NW1.6 kmh NW 4.0 mph6.4 kmh 29.99 in1015.6 mb 0.00 in0.0 mm 0.00 in0.0 mm 0.00 in0.0 mm
02:15 AM 63.4°F17.4°C 60.0°F15.6°C 89% 1.0 mph WNW1.6 kmh WNW 5.0 mph8.0 kmh 30.00 in1015.9 mb 0.00 in0.0 mm 0.00 in0.0 mm 0.00 in0.0 mm
02:20 AM 63.3°F17.4°C 59.9°F15.5°C 89% Calm Calm 6.0 mph9.7 kmh 30.00 in1015.9 mb 0.00 in0.0 mm 0.00 in0.0 mm 0.00 in0.0 mm
02:25 AM 63.1°F17.3°C 59.8°F15.4°C 89% 2.0 mph NW3.2 kmh NW 4.0 mph6.4 kmh 30.00 in1015.9 mb 0.01 in0.3 mm 0.12 in3.0 mm 0.01 in0.3 mm
02:30 AM 63.0°F17.2°C 59.7°F15.4°C 89% 3.0 mph WNW4.8 kmh WNW 3.0 mph4.8 kmh 30.00 in1015.9 mb 0.01 in0.3 mm 0.00 in0.0 mm 0.01 in0.3 mm
02:35 AM 62.9°F17.2°C 59.9°F15.5°C 90% 2.0 mph WNW3.2 kmh WNW 6.0 mph9.7 kmh 30.00 in1015.9 mb 0.02 in0.5 mm 0.12 in3.0 mm 0.02 in0.5 mm
02:40 AM 62.8°F17.1°C 60.1°F15.6°C 91% Calm Calm 4.0 mph6.4 kmh 30.00 in1015.9 mb 0.02 in0.5 mm 0.00 in0.0 mm 0.02 in0.5 mm
02:45 AM 62.7°F17.1°C 60.0°F15.6°C 91% Calm Calm 6.0 mph9.7 kmh 30.00 in1015.9 mb 0.03 in0.8 mm 0.12 in3.0 mm 0.03 in0.8 mm
02:50 AM 62.5°F16.9°C 59.8°F15.4°C 91% 2.0 mph WSW3.2 kmh WSW 6.0 mph9.7 kmh 30.00 in1015.9 mb 0.05 in1.3 mm 0.24 in6.1 mm 0.05 in1.3 mm
02:55 AM 62.4°F16.9°C 60.0°F15.6°C 92% 3.0 mph W4.8 kmh W 5.0 mph8.0 kmh 30.00 in1015.9 mb 0.06 in1.5 mm 0.12 in3.0 mm 0.06 in1.5 mm
03:00 AM 62.3°F16.8°C 59.9°F15.5°C 92% 6.0 mph W9.7 kmh W 6.0 mph9.7 kmh 30.00 in1015.9 mb 0.11 in2.8 mm 0.05 in1.3 mm 0.11 in2.8 mm
03:05 AM 62.2°F16.8°C 59.8°F15.4°C 92% 1.0 mph WNW1.6 kmh WNW 9.0 mph14.5 kmh 30.01 in1016.3 mb 0.17 in4.3 mm 0.72 in18.3 mm 0.17 in4.3 mm
03:10 AM 62.1°F16.7°C 59.7°F15.4°C 92% 4.0 mph WNW6.4 kmh WNW 7.0 mph11.3 kmh 30.01 in1016.3 mb 0.18 in4.6 mm 0.12 in3.0 mm 0.18 in4.6 mm
03:15 AM 61.9°F16.6°C 59.5°F15.3°C 92% Calm Calm 5.0 mph8.0 kmh 30.00 in1015.9 mb 0.19 in4.8 mm 0.12 in3.0 mm 0.19 in4.8 mm
03:20 AM 61.7°F16.5°C 59.3°F15.2°C 92% 4.0 mph WNW6.4 kmh WNW 6.0 mph9.7 kmh 30.01 in1016.3 mb 0.20 in5.1 mm 0.12 in3.0 mm 0.20 in5.1 mm
03:25 AM 61.5°F16.4°C 59.1°F15.1°C 92% 1.0 mph WNW1.6 kmh WNW 6.0 mph9.7 kmh 30.01 in1016.3 mb 0.20 in5.1 mm 0.00 in0.0 mm 0.20 in5.1 mm
03:30 AM 61.3°F16.3°C 58.9°F14.9°C 92% 2.0 mph 3.2 kmh 5.0 mph8.0 kmh 30.01 in1016.3 mb 0.20 in5.1 mm 0.00 in0.0 mm 0.21 in5.3 mm
03:35 AM 60.9°F16.1°C 58.5°F14.7°C 92% 2.0 mph N3.2 kmh N 6.0 mph9.7 kmh 30.01 in1016.3 mb 0.21 in5.3 mm 0.12 in3.0 mm 0.23 in5.8 mm
03:40 AM 60.7°F15.9°C 58.3°F14.6°C 92% 4.0 mph 6.4 kmh 9.0 mph14.5 kmh 30.00 in1015.9 mb 0.20 in5.1 mm 0.00 in0.0 mm 0.23 in5.8 mm
03:45 AM 60.5°F15.8°C 58.4°F14.7°C 93% Calm Calm 5.0 mph8.0 kmh 30.01 in1016.3 mb 0.20 in5.1 mm 0.00 in0.0 mm 0.24 in6.1 mm
03:50 AM 60.5°F15.8°C 58.4°F14.7°C 93% Calm Calm 2.0 mph3.2 kmh 30.01 in1016.3 mb 0.19 in4.8 mm 0.00 in0.0 mm 0.24 in6.1 mm
03:55 AM 60.4°F15.8°C 58.3°F14.6°C 93% 2.0 mph NNW3.2 kmh NNW 6.0 mph9.7 kmh 30.01 in1016.3 mb 0.18 in4.6 mm 0.00 in0.0 mm 0.24 in6.1 mm
04:00 AM 60.4°F15.8°C 58.3°F14.6°C 93% 4.0 mph N6.4 kmh N 5.0 mph8.0 kmh 30.01 in1016.3 mb 0.13 in3.3 mm 0.00 in0.0 mm 0.24 in6.1 mm
04:05 AM 60.2°F15.7°C 58.1°F14.5°C 93% 2.0 mph N3.2 kmh N 10.0 mph16.1 kmh 30.01 in1016.3 mb 0.08 in2.0 mm 0.00 in0.0 mm 0.24 in6.1 mm
04:10 AM 60.2°F15.7°C 58.1°F14.5°C 93% Calm Calm 6.0 mph9.7 kmh 30.02 in1016.6 mb 0.06 in1.5 mm 0.00 in0.0 mm 0.24 in6.1 mm
04:15 AM 60.2°F15.7°C 58.1°F14.5°C 93% 2.0 mph NNW3.2 kmh NNW 3.0 mph4.8 kmh 30.02 in1016.6 mb 0.06 in1.5 mm 0.00 in0.0 mm 0.24 in6.1 mm
04:20 AM 60.1°F15.6°C 58.0°F14.4°C 93% 1.0 mph NNE1.6 kmh NNE 7.0 mph11.3 kmh 30.02 in1016.6 mb 0.06 in1.5 mm 0.00 in0.0 mm 0.25 in6.4 mm
04:25 AM 60.0°F15.6°C 57.9°F14.4°C 93% 2.0 mph WNW3.2 kmh WNW 3.0 mph4.8 kmh 30.02 in1016.6 mb 0.05 in1.3 mm 0.00 in0.0 mm 0.25 in6.4 mm
04:30 AM 59.9°F15.5°C 57.8°F14.3°C 93% 1.0 mph NNW1.6 kmh NNW 4.0 mph6.4 kmh 30.02 in1016.6 mb 0.04 in1.0 mm 0.00 in0.0 mm 0.25 in6.4 mm
04:35 AM 59.8°F15.4°C 57.7°F14.3°C 93% 1.0 mph WNW1.6 kmh WNW 5.0 mph8.0 kmh 30.02 in1016.6 mb 0.03 in0.8 mm 0.00 in0.0 mm 0.26 in6.6 mm
04:40 AM 59.7°F15.4°C 57.6°F14.2°C 93% 1.0 mph W1.6 kmh W 4.0 mph6.4 kmh 30.02 in1016.6 mb 0.03 in0.8 mm 0.00 in0.0 mm 0.26 in6.6 mm
04:45 AM 59.7°F15.4°C 57.6°F14.2°C 93% 1.0 mph NW1.6 kmh NW 3.0 mph4.8 kmh 30.02 in1016.6 mb 0.06 in1.5 mm 0.36 in9.1 mm 0.29 in7.4 mm
04:50 AM 59.6°F15.3°C 57.5°F14.2°C 93% 1.0 mph N1.6 kmh N 4.0 mph6.4 kmh 30.02 in1016.6 mb 0.08 in2.0 mm 0.24 in6.1 mm 0.31 in7.9 mm
04:55 AM 59.5°F15.3°C 57.4°F14.1°C 93% Calm Calm 3.0 mph4.8 kmh 30.02 in1016.6 mb 0.07 in1.8 mm 0.00 in0.0 mm 0.31 in7.9 mm
05:00 AM 59.4°F15.2°C 57.3°F14.1°C 93% 1.0 mph N1.6 kmh N 4.0 mph6.4 kmh 30.02 in1016.6 mb 0.08 in2.0 mm 0.01 in0.3 mm 0.32 in8.1 mm
05:05 AM 59.3°F15.2°C 57.2°F14.0°C 93% Calm Calm 1.0 mph1.6 kmh 30.03 in1016.9 mb 0.09 in2.3 mm 0.12 in3.0 mm 0.33 in8.4 mm
05:10 AM 59.3°F15.2°C 57.2°F14.0°C 93% 2.0 mph NW3.2 kmh NW 2.0 mph3.2 kmh 30.03 in1016.9 mb 0.09 in2.3 mm 0.00 in0.0 mm 0.33 in8.4 mm
05:15 AM 59.2°F15.1°C 57.1°F13.9°C 93% Calm Calm 3.0 mph4.8 kmh 30.03 in1016.9 mb 0.09 in2.3 mm 0.00 in0.0 mm 0.33 in8.4 mm
05:20 AM 59.3°F15.2°C 57.2°F14.0°C 93% 1.0 mph WNW1.6 kmh WNW 2.0 mph3.2 kmh 30.03 in1016.9 mb 0.08 in2.0 mm 0.00 in0.0 mm 0.33 in8.4 mm
05:25 AM 59.3°F15.2°C 57.2°F14.0°C 93% 1.0 mph WNW1.6 kmh WNW 3.0 mph4.8 kmh 30.03 in1016.9 mb 0.08 in2.0 mm 0.00 in0.0 mm 0.33 in8.4 mm
05:30 AM 59.3°F15.2°C 57.2°F14.0°C 93% 1.0 mph W1.6 kmh W 2.0 mph3.2 kmh 30.03 in1016.9 mb 0.08 in2.0 mm 0.00 in0.0 mm 0.33 in8.4 mm
05:35 AM 59.3°F15.2°C 57.2°F14.0°C 93% 3.0 mph W4.8 kmh W 3.0 mph4.8 kmh 30.03 in1016.9 mb 0.07 in1.8 mm 0.00 in0.0 mm 0.33 in8.4 mm
05:40 AM 59.2°F15.1°C 57.1°F13.9°C 93% 2.0 mph WNW3.2 kmh WNW 3.0 mph4.8 kmh 30.03 in1016.9 mb 0.07 in1.8 mm 0.00 in0.0 mm 0.33 in8.4 mm
05:45 AM 59.2°F15.1°C 57.1°F13.9°C 93% 2.0 mph WNW3.2 kmh WNW 3.0 mph4.8 kmh 30.03 in1016.9 mb 0.04 in1.0 mm 0.00 in0.0 mm 0.33 in8.4 mm
05:50 AM 59.2°F15.1°C 57.1°F13.9°C 93% 3.0 mph WNW4.8 kmh WNW 4.0 mph6.4 kmh 30.04 in1017.3 mb 0.02 in0.5 mm 0.00 in0.0 mm 0.33 in8.4 mm
05:55 AM 59.2°F15.1°C 57.1°F13.9°C 93% 2.0 mph WNW3.2 kmh WNW 3.0 mph4.8 kmh 30.04 in1017.3 mb 0.02 in0.5 mm 0.00 in0.0 mm 0.34 in8.6 mm
06:00 AM 59.3°F15.2°C 57.5°F14.2°C 94% Calm Calm 5.0 mph8.0 kmh 30.04 in1017.3 mb 0.02 in0.5 mm 0.00 in0.0 mm 0.34 in8.6 mm
06:05 AM 59.3°F15.2°C 57.5°F14.2°C 94% 2.0 mph W3.2 kmh W 3.0 mph4.8 kmh 30.04 in1017.3 mb 0.02 in0.5 mm 0.00 in0.0 mm 0.35 in8.9 mm
06:10 AM 59.3°F15.2°C 57.5°F14.2°C 94% 2.0 mph W3.2 kmh W 3.0 mph4.8 kmh 30.05 in1017.6 mb 0.02 in0.5 mm 0.00 in0.0 mm 0.35 in8.9 mm
06:15 AM 59.4°F15.2°C 57.6°F14.2°C 94% 1.0 mph W1.6 kmh W 3.0 mph4.8 kmh 30.05 in1017.6 mb 0.03 in0.8 mm 0.12 in3.0 mm 0.36 in9.1 mm
06:20 AM 59.4°F15.2°C 57.6°F14.2°C 94% 3.0 mph WNW4.8 kmh WNW 3.0 mph4.8 kmh 30.05 in1017.6 mb 0.03 in0.8 mm 0.00 in0.0 mm 0.36 in9.1 mm
06:25 AM 59.4°F15.2°C 57.6°F14.2°C 94% 1.0 mph WNW1.6 kmh WNW 3.0 mph4.8 kmh 30.04 in1017.3 mb 0.04 in1.0 mm 0.12 in3.0 mm 0.37 in9.4 mm
06:30 AM 59.5°F15.3°C 57.7°F14.3°C 94% 1.0 mph WNW1.6 kmh WNW 3.0 mph4.8 kmh 30.04 in1017.3 mb 0.05 in1.3 mm 0.12 in3.0 mm 0.38 in9.7 mm
06:35 AM 59.4°F15.2°C 57.6°F14.2°C 94% 1.0 mph WNW1.6 kmh WNW 3.0 mph4.8 kmh 30.05 in1017.6 mb 0.06 in1.5 mm 0.12 in3.0 mm 0.39 in9.9 mm
06:40 AM 59.4°F15.2°C 57.6°F14.2°C 94% 1.0 mph WNW1.6 kmh WNW 2.0 mph3.2 kmh 30.05 in1017.6 mb 0.06 in1.5 mm 0.00 in0.0 mm 0.39 in9.9 mm
06:45 AM 59.4°F15.2°C 57.6°F14.2°C 94% 1.0 mph W1.6 kmh W 2.0 mph3.2 kmh 30.05 in1017.6 mb 0.06 in1.5 mm 0.00 in0.0 mm 0.39 in9.9 mm
06:50 AM 59.4°F15.2°C 57.6°F14.2°C 94% Calm Calm 3.0 mph4.8 kmh 30.05 in1017.6 mb 0.06 in1.5 mm 0.00 in0.0 mm 0.39 in9.9 mm
06:55 AM 59.5°F15.3°C 57.4°F14.1°C 93% 2.0 mph W3.2 kmh W 2.0 mph3.2 kmh 30.05 in1017.6 mb 0.06 in1.5 mm 0.00 in0.0 mm 0.40 in10.2 mm
07:00 AM 59.5°F15.3°C 57.4°F14.1°C 93% 1.0 mph W1.6 kmh W 2.0 mph3.2 kmh 30.05 in1017.6 mb 0.06 in1.5 mm 0.00 in0.0 mm 0.40 in10.2 mm
07:05 AM 59.3°F15.2°C 57.2°F14.0°C 93% 1.0 mph W1.6 kmh W 2.0 mph3.2 kmh 30.06 in1017.9 mb 0.06 in1.5 mm 0.00 in0.0 mm 0.41 in10.4 mm
07:10 AM 59.4°F15.2°C 57.3°F14.1°C 93% Calm Calm 1.0 mph1.6 kmh 30.06 in1017.9 mb 0.06 in1.5 mm 0.00 in0.0 mm 0.41 in10.4 mm
07:15 AM 59.4°F15.2°C 57.3°F14.1°C 93% 1.0 mph W1.6 kmh W 2.0 mph3.2 kmh 30.06 in1017.9 mb 0.05 in1.3 mm 0.00 in0.0 mm 0.41 in10.4 mm
07:20 AM 59.3°F15.2°C 57.2°F14.0°C 93% Calm Calm 2.0 mph3.2 kmh 30.06 in1017.9 mb 0.06 in1.5 mm 0.12 in3.0 mm 0.42 in10.7 mm
07:25 AM 59.3°F15.2°C 57.5°F14.2°C 94% Calm Calm 2.0 mph3.2 kmh 30.06 in1017.9 mb 0.05 in1.3 mm 0.00 in0.0 mm 0.42 in10.7 mm
07:30 AM 59.5°F15.3°C 57.7°F14.3°C 94% Calm Calm -- 30.06 in1017.9 mb 0.05 in1.3 mm 0.00 in0.0 mm 0.43 in10.9 mm
07:35 AM 59.6°F15.3°C 57.8°F14.3°C 94% Calm Calm -- 30.06 in1017.9 mb 0.04 in1.0 mm 0.00 in0.0 mm 0.43 in10.9 mm
07:40 AM 59.4°F15.2°C 57.3°F14.1°C 93% Calm Calm -- 30.07 in1018.3 mb 0.04 in1.0 mm 0.00 in0.0 mm 0.43 in10.9 mm
07:45 AM 59.4°F15.2°C 57.3°F14.1°C 93% Calm Calm -- 30.06 in1017.9 mb 0.03 in0.8 mm 0.00 in0.0 mm 0.43 in10.9 mm
07:50 AM 59.3°F15.2°C 57.2°F14.0°C 93% Calm Calm -- 30.07 in1018.3 mb 0.04 in1.0 mm 0.12 in3.0 mm 0.43 in10.9 mm
07:55 AM 59.3°F15.2°C 57.2°F14.0°C 93% 2.0 mph SW3.2 kmh SW 3.0 mph4.8 kmh 30.07 in1018.3 mb 0.03 in0.8 mm 0.00 in0.0 mm 0.43 in10.9 mm
08:00 AM 59.3°F15.2°C 57.5°F14.2°C 94% 3.0 mph SW4.8 kmh SW 3.0 mph4.8 kmh 30.07 in1018.3 mb 0.03 in0.8 mm 0.00 in0.0 mm 0.43 in10.9 mm
08:05 AM 59.4°F15.2°C 57.6°F14.2°C 94% 1.0 mph SW1.6 kmh SW 3.0 mph4.8 kmh 30.07 in1018.3 mb 0.03 in0.8 mm 0.00 in0.0 mm 0.44 in11.2 mm
08:10 AM 59.5°F15.3°C 57.7°F14.3°C 94% 1.0 mph SW1.6 kmh SW 3.0 mph4.8 kmh 30.07 in1018.3 mb 0.03 in0.8 mm 0.00 in0.0 mm 0.44 in11.2 mm
08:15 AM 59.3°F15.2°C 57.2°F14.0°C 93% 1.0 mph SW1.6 kmh SW 4.0 mph6.4 kmh 30.07 in1018.3 mb 0.03 in0.8 mm 0.00 in0.0 mm 0.44 in11.2 mm
08:20 AM 59.4°F15.2°C 57.6°F14.2°C 94% 2.0 mph SW3.2 kmh SW 2.0 mph3.2 kmh 30.07 in1018.3 mb 0.02 in0.5 mm 0.00 in0.0 mm 0.44 in11.2 mm
08:25 AM 59.5°F15.3°C 57.7°F14.3°C 94% 3.0 mph WSW4.8 kmh WSW 4.0 mph6.4 kmh 30.07 in1018.3 mb 0.02 in0.5 mm 0.00 in0.0 mm 0.44 in11.2 mm
08:30 AM 59.5°F15.3°C 57.4°F14.1°C 93% 2.0 mph WSW3.2 kmh WSW 4.0 mph6.4 kmh 30.07 in1018.3 mb 0.02 in0.5 mm 0.00 in0.0 mm 0.44 in11.2 mm
08:35 AM 59.4°F15.2°C 57.6°F14.2°C 94% 1.0 mph WSW1.6 kmh WSW 3.0 mph4.8 kmh 30.08 in1018.6 mb 0.02 in0.5 mm 0.00 in0.0 mm 0.44 in11.2 mm
08:40 AM 59.4°F15.2°C 57.6°F14.2°C 94% 2.0 mph WSW3.2 kmh WSW 3.0 mph4.8 kmh 30.08 in1018.6 mb 0.02 in0.5 mm 0.00 in0.0 mm 0.44 in11.2 mm
08:45 AM 59.5°F15.3°C 57.7°F14.3°C 94% 2.0 mph WSW3.2 kmh WSW 3.0 mph4.8 kmh 30.08 in1018.6 mb 0.02 in0.5 mm 0.00 in0.0 mm 0.44 in11.2 mm
08:50 AM 59.5°F15.3°C 57.7°F14.3°C 94% 2.0 mph WSW3.2 kmh WSW 3.0 mph4.8 kmh 30.08 in1018.6 mb 0.01 in0.3 mm 0.00 in0.0 mm 0.44 in11.2 mm
08:55 AM 59.5°F15.3°C 57.7°F14.3°C 94% 2.0 mph SW3.2 kmh SW 3.0 mph4.8 kmh 30.08 in1018.6 mb 0.01 in0.3 mm 0.00 in0.0 mm 0.44 in11.2 mm
09:00 AM 59.5°F15.3°C 57.7°F14.3°C 94% Calm Calm 2.0 mph3.2 kmh 30.08 in1018.6 mb 0.01 in0.3 mm 0.00 in0.0 mm 0.44 in11.2 mm
09:05 AM 59.6°F15.3°C 57.8°F14.3°C 94% Calm Calm 3.0 mph4.8 kmh 30.08 in1018.6 mb 0.00 in0.0 mm 0.00 in0.0 mm 0.44 in11.2 mm
09:10 AM 59.7°F15.4°C 57.6°F14.2°C 93% 1.0 mph SW1.6 kmh SW 2.0 mph3.2 kmh 30.09 in1019.0 mb 0.00 in0.0 mm 0.00 in0.0 mm 0.44 in11.2 mm
09:15 AM 59.8°F15.4°C 57.7°F14.3°C 93% Calm Calm 3.0 mph4.8 kmh 30.09 in1019.0 mb 0.00 in0.0 mm 0.00 in0.0 mm 0.44 in11.2 mm
09:20 AM 59.8°F15.4°C 57.7°F14.3°C 93% Calm Calm 3.0 mph4.8 kmh 30.09 in1019.0 mb 0.00 in0.0 mm 0.00 in0.0 mm 0.44 in11.2 mm
09:25 AM 59.9°F15.5°C 57.8°F14.3°C 93% Calm Calm -- 30.09 in1019.0 mb 0.00 in0.0 mm 0.00 in0.0 mm 0.44 in11.2 mm
09:30 AM 60.1°F15.6°C 58.0°F14.4°C 93% Calm Calm -- 30.09 in1019.0 mb 0.00 in0.0 mm 0.00 in0.0 mm 0.44 in11.2 mm
09:35 AM 60.1°F15.6°C 57.7°F14.3°C 92% 2.0 mph SW3.2 kmh SW 3.0 mph4.8 kmh 30.09 in1019.0 mb 0.00 in0.0 mm 0.00 in0.0 mm 0.44 in11.2 mm
09:40 AM 60.1°F15.6°C 57.7°F14.3°C 92% 2.0 mph SW3.2 kmh SW 2.0 mph3.2 kmh 30.09 in1019.0 mb 0.00 in0.0 mm 0.00 in0.0 mm 0.44 in11.2 mm
09:45 AM 60.2°F15.7°C 57.8°F14.3°C 92% Calm Calm 2.0 mph3.2 kmh 30.09 in1019.0 mb 0.00 in0.0 mm 0.00 in0.0 mm 0.44 in11.2 mm
09:50 AM 60.5°F15.8°C 58.1°F14.5°C 92% Calm Calm 2.0 mph3.2 kmh 30.10 in1019.3 mb 0.00 in0.0 mm 0.00 in0.0 mm 0.44 in11.2 mm
09:55 AM 60.7°F15.9°C 58.3°F14.6°C 92% Calm Calm 2.0 mph3.2 kmh 30.09 in1019.0 mb 0.00 in0.0 mm 0.00 in0.0 mm 0.44 in11.2 mm
10:00 AM 61.1°F16.2°C 58.7°F14.8°C 92% Calm Calm 1.0 mph1.6 kmh 30.09 in1019.0 mb 0.00 in0.0 mm 0.00 in0.0 mm 0.44 in11.2 mm
10:05 AM 61.2°F16.2°C 58.2°F14.6°C 90% Calm Calm 1.0 mph1.6 kmh 30.10 in1019.3 mb 0.00 in0.0 mm 0.00 in0.0 mm 0.44 in11.2 mm
10:10 AM 61.4°F16.3°C 58.4°F14.7°C 90% 1.0 mph SSW1.6 kmh SSW 3.0 mph4.8 kmh 30.10 in1019.3 mb 0.00 in0.0 mm 0.00 in0.0 mm 0.44 in11.2 mm
10:15 AM 61.6°F16.4°C 58.6°F14.8°C 90% Calm Calm 3.0 mph4.8 kmh 30.09 in1019.0 mb 0.00 in0.0 mm 0.00 in0.0 mm 0.44 in11.2 mm
10:20 AM 61.9°F16.6°C 58.9°F14.9°C 90% Calm Calm 2.0 mph3.2 kmh 30.09 in1019.0 mb 0.00 in0.0 mm 0.00 in0.0 mm 0.44 in11.2 mm
10:25 AM 62.1°F16.7°C 58.8°F14.9°C 89% Calm Calm 1.0 mph1.6 kmh 30.09 in1019.0 mb 0.00 in0.0 mm 0.00 in0.0 mm 0.44 in11.2 mm
10:30 AM 62.5°F16.9°C 59.2°F15.1°C 89% Calm Calm 1.0 mph1.6 kmh 30.09 in1019.0 mb 0.00 in0.0 mm 0.00 in0.0 mm 0.44 in11.2 mm
10:35 AM 62.8°F17.1°C 59.8°F15.4°C 90% 2.0 mph W3.2 kmh W 3.0 mph4.8 kmh 30.09 in1019.0 mb 0.00 in0.0 mm 0.00 in0.0 mm 0.44 in11.2 mm
10:40 AM 63.1°F17.3°C 59.4°F15.2°C 88% Calm Calm 1.0 mph1.6 kmh 30.09 in1019.0 mb 0.00 in0.0 mm 0.00 in0.0 mm 0.44 in11.2 mm
10:45 AM 63.2°F17.3°C 58.9°F14.9°C 86% Calm Calm 3.0 mph4.8 kmh 30.09 in1019.0 mb 0.00 in0.0 mm 0.00 in0.0 mm 0.44 in11.2 mm
10:50 AM 63.3°F17.4°C 59.0°F15.0°C 86% Calm Calm 3.0 mph4.8 kmh 30.09 in1019.0 mb 0.00 in0.0 mm 0.00 in0.0 mm 0.44 in11.2 mm
10:55 AM 63.6°F17.6°C 59.6°F15.3°C 87% 1.0 mph NW1.6 kmh NW 3.0 mph4.8 kmh 30.09 in1019.0 mb 0.00 in0.0 mm 0.00 in0.0 mm 0.44 in11.2 mm
11:00 AM 63.8°F17.7°C 58.8°F14.9°C 84% 3.0 mph WSW4.8 kmh WSW 4.0 mph6.4 kmh 30.09 in1019.0 mb 0.00 in0.0 mm 0.00 in0.0 mm 0.44 in11.2 mm
11:05 AM 63.9°F17.7°C 58.6°F14.8°C 83% 1.0 mph WSW1.6 kmh WSW 3.0 mph4.8 kmh 30.09 in1019.0 mb 0.00 in0.0 mm 0.00 in0.0 mm 0.44 in11.2 mm
11:10 AM 64.2°F17.9°C 58.9°F14.9°C 83% 1.0 mph WSW1.6 kmh WSW 2.0 mph3.2 kmh 30.09 in1019.0 mb 0.00 in0.0 mm 0.00 in0.0 mm 0.44 in11.2 mm
11:15 AM 64.8°F18.2°C 58.4°F14.7°C 80% 1.0 mph WSW1.6 kmh WSW 3.0 mph4.8 kmh 30.09 in1019.0 mb 0.00 in0.0 mm 0.00 in0.0 mm 0.44 in11.2 mm
11:20 AM 65.8°F18.8°C 59.7°F15.4°C 81% Calm Calm 3.0 mph4.8 kmh 30.08 in1018.6 mb 0.00 in0.0 mm 0.00 in0.0 mm 0.44 in11.2 mm
11:25 AM 66.8°F19.3°C 60.4°F15.8°C 80% Calm Calm 4.0 mph6.4 kmh 30.08 in1018.6 mb 0.00 in0.0 mm 0.00 in0.0 mm 0.44 in11.2 mm
11:30 AM 67.1°F19.5°C 58.5°F14.7°C 74% 1.0 mph N1.6 kmh N 4.0 mph6.4 kmh 30.08 in1018.6 mb 0.00 in0.0 mm 0.00 in0.0 mm 0.44 in11.2 mm
11:35 AM 66.2°F19.0°C 58.4°F14.7°C 76% 3.0 mph NE4.8 kmh NE 6.0 mph9.7 kmh 30.08 in1018.6 mb 0.00 in0.0 mm 0.00 in0.0 mm 0.44 in11.2 mm
11:40 AM 65.3°F18.5°C 58.2°F14.6°C 78% 3.0 mph NE4.8 kmh NE 5.0 mph8.0 kmh 30.08 in1018.6 mb 0.00 in0.0 mm 0.00 in0.0 mm 0.44 in11.2 mm
11:45 AM 64.9°F18.3°C 58.2°F14.6°C 79% 2.0 mph N3.2 kmh N 4.0 mph6.4 kmh 30.09 in1019.0 mb 0.00 in0.0 mm 0.00 in0.0 mm 0.44 in11.2 mm
11:50 AM 65.1°F18.4°C 59.4°F15.2°C 82% 1.0 mph N1.6 kmh N 2.0 mph3.2 kmh 30.08 in1018.6 mb 0.00 in0.0 mm 0.00 in0.0 mm 0.44 in11.2 mm
11:55 AM 65.3°F18.5°C 59.3°F15.2°C 81% Calm Calm 2.0 mph3.2 kmh 30.08 in1018.6 mb 0.00 in0.0 mm 0.00 in0.0 mm 0.44 in11.2 mm
12:00 PM 65.7°F18.7°C 58.2°F14.6°C 77% Calm Calm 3.0 mph4.8 kmh 30.08 in1018.6 mb 0.00 in0.0 mm 0.00 in0.0 mm 0.44 in11.2 mm
12:05 PM 66.2°F19.0°C 58.4°F14.7°C 76% Calm Calm 3.0 mph4.8 kmh 30.08 in1018.6 mb 0.00 in0.0 mm 0.00 in0.0 mm 0.44 in11.2 mm
12:10 PM 66.7°F19.3°C 58.1°F14.5°C 74% Calm Calm 4.0 mph6.4 kmh 30.08 in1018.6 mb 0.00 in0.0 mm 0.00 in0.0 mm 0.44 in11.2 mm
12:15 PM 67.2°F19.6°C 58.6°F14.8°C 74% 3.0 mph W4.8 kmh W 4.0 mph6.4 kmh 30.08 in1018.6 mb 0.00 in0.0 mm 0.00 in0.0 mm 0.44 in11.2 mm
12:20 PM 66.9°F19.4°C 57.9°F14.4°C 73% 2.0 mph WSW3.2 kmh WSW 3.0 mph4.8 kmh 30.08 in1018.6 mb 0.00 in0.0 mm 0.00 in0.0 mm 0.44 in11.2 mm
12:25 PM 66.8°F19.3°C 59.3°F15.2°C 77% 1.0 mph NE1.6 kmh NE 4.0 mph6.4 kmh 30.08 in1018.6 mb 0.00 in0.0 mm 0.00 in0.0 mm 0.44 in11.2 mm
12:30 PM 66.9°F19.4°C 59.4°F15.2°C 77% 2.0 mph WNW3.2 kmh WNW 5.0 mph8.0 kmh 30.08 in1018.6 mb 0.00 in0.0 mm 0.00 in0.0 mm 0.44 in11.2 mm
12:35 PM 67.0°F19.4°C 58.8°F14.9°C 75% 4.0 mph WNW6.4 kmh WNW 5.0 mph8.0 kmh 30.08 in1018.6 mb 0.00 in0.0 mm 0.00 in0.0 mm 0.44 in11.2 mm
12:40 PM 67.0°F19.4°C 58.8°F14.9°C 75% Calm Calm 5.0 mph8.0 kmh 30.08 in1018.6 mb 0.00 in0.0 mm 0.00 in0.0 mm 0.44 in11.2 mm
12:45 PM 66.9°F19.4°C 58.7°F14.8°C 75% 1.0 mph W1.6 kmh W 3.0 mph4.8 kmh 30.08 in1018.6 mb 0.00 in0.0 mm 0.00 in0.0 mm 0.44 in11.2 mm
12:50 PM 67.4°F19.7°C 58.4°F14.7°C 73% 1.0 mph N1.6 kmh N 3.0 mph4.8 kmh 30.08 in1018.6 mb 0.00 in0.0 mm 0.00 in0.0 mm 0.44 in11.2 mm
12:55 PM 67.3°F19.6°C 58.7°F14.8°C 74% 2.0 mph NE3.2 kmh NE 5.0 mph8.0 kmh 30.07 in1018.3 mb 0.00 in0.0 mm 0.00 in0.0 mm 0.44 in11.2 mm
01:00 PM 67.4°F19.7°C 59.1°F15.1°C 75% 3.0 mph ENE4.8 kmh ENE 4.0 mph6.4 kmh 30.07 in1018.3 mb 0.00 in0.0 mm 0.00 in0.0 mm 0.44 in11.2 mm
01:05 PM 67.9°F19.9°C 58.9°F14.9°C 73% 2.0 mph NW3.2 kmh NW 4.0 mph6.4 kmh 30.07 in1018.3 mb 0.00 in0.0 mm 0.00 in0.0 mm 0.44 in11.2 mm
01:10 PM 68.0°F20.0°C 59.3°F15.2°C 74% 4.0 mph NE6.4 kmh NE 4.0 mph6.4 kmh 30.07 in1018.3 mb 0.00 in0.0 mm 0.00 in0.0 mm 0.44 in11.2 mm
01:15 PM 68.1°F20.1°C 59.1°F15.1°C 73% 2.0 mph NNE3.2 kmh NNE 3.0 mph4.8 kmh 30.06 in1017.9 mb 0.00 in0.0 mm 0.00 in0.0 mm 0.44 in11.2 mm
01:20 PM 69.0°F20.6°C 58.3°F14.6°C 69% 2.0 mph SW3.2 kmh SW 3.0 mph4.8 kmh 30.06 in1017.9 mb 0.00 in0.0 mm 0.00 in0.0 mm 0.44 in11.2 mm
01:25 PM 69.7°F20.9°C 57.8°F14.3°C 66% 2.0 mph WSW3.2 kmh WSW 4.0 mph6.4 kmh 30.06 in1017.9 mb 0.00 in0.0 mm 0.00 in0.0 mm 0.44 in11.2 mm
01:30 PM 70.2°F21.2°C 59.5°F15.3°C 69% Calm Calm 4.0 mph6.4 kmh 30.06 in1017.9 mb 0.00 in0.0 mm 0.00 in0.0 mm 0.44 in11.2 mm
01:35 PM 70.6°F21.4°C 59.0°F15.0°C 67% 2.0 mph W3.2 kmh W 3.0 mph4.8 kmh 30.05 in1017.6 mb 0.00 in0.0 mm 0.00 in0.0 mm 0.44 in11.2 mm
01:40 PM 70.9°F21.6°C 58.5°F14.7°C 65% 3.0 mph N4.8 kmh N 4.0 mph6.4 kmh 30.05 in1017.6 mb 0.00 in0.0 mm 0.00 in0.0 mm 0.44 in11.2 mm
01:45 PM 70.5°F21.4°C 58.5°F14.7°C 66% 2.0 mph SE3.2 kmh SE 4.0 mph6.4 kmh 30.05 in1017.6 mb 0.00 in0.0 mm 0.00 in0.0 mm 0.44 in11.2 mm
01:50 PM 70.5°F21.4°C 58.1°F14.5°C 65% 1.0 mph NE1.6 kmh NE 3.0 mph4.8 kmh 30.05 in1017.6 mb 0.00 in0.0 mm 0.00 in0.0 mm 0.44 in11.2 mm
01:55 PM 69.9°F21.1°C 58.4°F14.7°C 67% 3.0 mph E4.8 kmh E 5.0 mph8.0 kmh 30.05 in1017.6 mb 0.00 in0.0 mm 0.00 in0.0 mm 0.44 in11.2 mm
02:00 PM 69.9°F21.1°C 58.8°F14.9°C 68% 2.0 mph ENE3.2 kmh ENE 4.0 mph6.4 kmh 30.05 in1017.6 mb 0.00 in0.0 mm 0.00 in0.0 mm 0.44 in11.2 mm
02:05 PM 70.4°F21.3°C 58.9°F14.9°C 67% 1.0 mph E1.6 kmh E 4.0 mph6.4 kmh 30.06 in1017.9 mb 0.00 in0.0 mm 0.00 in0.0 mm 0.44 in11.2 mm
02:10 PM 71.3°F21.8°C 60.1°F15.6°C 68% 3.0 mph NW4.8 kmh NW 3.0 mph4.8 kmh 30.06 in1017.9 mb 0.00 in0.0 mm 0.00 in0.0 mm 0.44 in11.2 mm
02:15 PM 72.1°F22.3°C 58.3°F14.6°C 62% Calm Calm 2.0 mph3.2 kmh 30.05 in1017.6 mb 0.00 in0.0 mm 0.00 in0.0 mm 0.44 in11.2 mm
02:20 PM 72.8°F22.7°C 59.4°F15.2°C 63% 2.0 mph S3.2 kmh S 4.0 mph6.4 kmh 30.05 in1017.6 mb 0.00 in0.0 mm 0.00 in0.0 mm 0.44 in11.2 mm
02:25 PM 73.1°F22.8°C 59.2°F15.1°C 62% 1.0 mph S1.6 kmh S 4.0 mph6.4 kmh 30.05 in1017.6 mb 0.00 in0.0 mm 0.00 in0.0 mm 0.44 in11.2 mm
02:30 PM 72.6°F22.6°C 58.3°F14.6°C 61% 5.0 mph SW8.0 kmh SW 5.0 mph8.0 kmh 30.05 in1017.6 mb 0.00 in0.0 mm 0.00 in0.0 mm 0.44 in11.2 mm
02:35 PM 71.8°F22.1°C 58.0°F14.4°C 62% 3.0 mph SW4.8 kmh SW 5.0 mph8.0 kmh 30.05 in1017.6 mb 0.00 in0.0 mm 0.00 in0.0 mm 0.44 in11.2 mm
02:40 PM 71.7°F22.1°C 58.4°F14.7°C 63% 1.0 mph WSW1.6 kmh WSW 4.0 mph6.4 kmh 30.04 in1017.3 mb 0.00 in0.0 mm 0.00 in0.0 mm 0.44 in11.2 mm
02:45 PM 72.0°F22.2°C 58.2°F14.6°C 62% Calm Calm 5.0 mph8.0 kmh 30.04 in1017.3 mb 0.00 in0.0 mm 0.00 in0.0 mm 0.44 in11.2 mm
02:50 PM 72.5°F22.5°C 59.6°F15.3°C 64% 3.0 mph WSW4.8 kmh WSW 4.0 mph6.4 kmh 30.04 in1017.3 mb 0.00 in0.0 mm 0.00 in0.0 mm 0.44 in11.2 mm
02:55 PM 72.8°F22.7°C 58.5°F14.7°C 61% 1.0 mph W1.6 kmh W 5.0 mph8.0 kmh 30.04 in1017.3 mb 0.00 in0.0 mm 0.00 in0.0 mm 0.44 in11.2 mm
03:00 PM 73.1°F22.8°C 58.8°F14.9°C 61% 2.0 mph WNW3.2 kmh WNW 5.0 mph8.0 kmh 30.04 in1017.3 mb 0.00 in0.0 mm 0.00 in0.0 mm 0.44 in11.2 mm
03:05 PM 73.0°F22.8°C 58.7°F14.8°C 61% 2.0 mph N3.2 kmh N 3.0 mph4.8 kmh 30.05 in1017.6 mb 0.00 in0.0 mm 0.00 in0.0 mm 0.44 in11.2 mm
03:10 PM 72.2°F22.3°C 57.9°F14.4°C 61% 3.0 mph N4.8 kmh N 6.0 mph9.7 kmh 30.04 in1017.3 mb 0.00 in0.0 mm 0.00 in0.0 mm 0.44 in11.2 mm
03:15 PM 71.2°F21.8°C 59.2°F15.1°C 66% 1.0 mph WNW1.6 kmh WNW 3.0 mph4.8 kmh 30.05 in1017.6 mb 0.00 in0.0 mm 0.00 in0.0 mm 0.44 in11.2 mm
03:20 PM 70.9°F21.6°C 57.6°F14.2°C 63% 2.0 mph NE3.2 kmh NE 4.0 mph6.4 kmh 30.05 in1017.6 mb 0.00 in0.0 mm 0.00 in0.0 mm 0.44 in11.2 mm
03:25 PM 70.0°F21.1°C 57.2°F14.0°C 64% 1.0 mph N1.6 kmh N 4.0 mph6.4 kmh 30.05 in1017.6 mb 0.00 in0.0 mm 0.00 in0.0 mm 0.44 in11.2 mm
03:30 PM 69.7°F20.9°C 57.8°F14.3°C 66% 2.0 mph NNE3.2 kmh NNE 4.0 mph6.4 kmh 30.04 in1017.3 mb 0.00 in0.0 mm 0.00 in0.0 mm 0.44 in11.2 mm
03:35 PM 69.6°F20.9°C 58.1°F14.5°C 67% 2.0 mph NNE3.2 kmh NNE 3.0 mph4.8 kmh 30.05 in1017.6 mb 0.00 in0.0 mm 0.00 in0.0 mm 0.44 in11.2 mm
03:40 PM 69.6°F20.9°C 56.4°F13.6°C 63% 1.0 mph N1.6 kmh N 2.0 mph3.2 kmh 30.04 in1017.3 mb 0.00 in0.0 mm 0.00 in0.0 mm 0.44 in11.2 mm
03:45 PM 69.5°F20.8°C 57.2°F14.0°C 65% 2.0 mph N3.2 kmh N 2.0 mph3.2 kmh 30.04 in1017.3 mb 0.00 in0.0 mm 0.00 in0.0 mm 0.44 in11.2 mm
03:50 PM 69.7°F20.9°C 57.8°F14.3°C 66% Calm Calm 2.0 mph3.2 kmh 30.04 in1017.3 mb 0.00 in0.0 mm 0.00 in0.0 mm 0.44 in11.2 mm
03:55 PM 70.0°F21.1°C 58.5°F14.7°C 67% Calm Calm 1.0 mph1.6 kmh 30.04 in1017.3 mb 0.00 in0.0 mm 0.00 in0.0 mm 0.44 in11.2 mm
04:00 PM 70.2°F21.2°C 57.8°F14.3°C 65% 3.0 mph WNW4.8 kmh WNW 4.0 mph6.4 kmh 30.04 in1017.3 mb 0.00 in0.0 mm 0.00 in0.0 mm 0.44 in11.2 mm
04:05 PM 70.3°F21.3°C 58.8°F14.9°C 67% 2.0 mph N3.2 kmh N 3.0 mph4.8 kmh 30.04 in1017.3 mb 0.00 in0.0 mm 0.00 in0.0 mm 0.44 in11.2 mm
04:10 PM 69.9°F21.1°C 58.0°F14.4°C 66% 2.0 mph N3.2 kmh N 4.0 mph6.4 kmh 30.04 in1017.3 mb 0.00 in0.0 mm 0.00 in0.0 mm 0.44 in11.2 mm
04:15 PM 69.6°F20.9°C 58.5°F14.7°C 68% 2.0 mph N3.2 kmh N 4.0 mph6.4 kmh 30.04 in1017.3 mb 0.00 in0.0 mm 0.00 in0.0 mm 0.44 in11.2 mm
04:20 PM 69.3°F20.7°C 59.0°F15.0°C 70% 2.0 mph N3.2 kmh N 4.0 mph6.4 kmh 30.04 in1017.3 mb 0.00 in0.0 mm 0.00 in0.0 mm 0.44 in11.2 mm
04:25 PM 69.2°F20.7°C 58.5°F14.7°C 69% 2.0 mph NE3.2 kmh NE 4.0 mph6.4 kmh 30.04 in1017.3 mb 0.00 in0.0 mm 0.00 in0.0 mm 0.44 in11.2 mm
04:30 PM 69.0°F20.6°C 58.7°F14.8°C 70% 3.0 mph NNE4.8 kmh NNE 4.0 mph6.4 kmh 30.04 in1017.3 mb 0.00 in0.0 mm 0.00 in0.0 mm 0.44 in11.2 mm
04:35 PM 68.8°F20.4°C 58.6°F14.8°C 70% 1.0 mph NE1.6 kmh NE 4.0 mph6.4 kmh 30.04 in1017.3 mb 0.00 in0.0 mm 0.00 in0.0 mm 0.44 in11.2 mm
04:40 PM 68.7°F20.4°C 58.9°F14.9°C 71% 2.0 mph NE3.2 kmh NE 3.0 mph4.8 kmh 30.04 in1017.3 mb 0.00 in0.0 mm 0.00 in0.0 mm 0.44 in11.2 mm
04:45 PM 68.7°F20.4°C 58.5°F14.7°C 70% 2.0 mph NNE3.2 kmh NNE 3.0 mph4.8 kmh 30.04 in1017.3 mb 0.00 in0.0 mm 0.00 in0.0 mm 0.44 in11.2 mm
04:50 PM 69.2°F20.7°C 58.9°F14.9°C 70% 1.0 mph ENE1.6 kmh ENE 3.0 mph4.8 kmh 30.04 in1017.3 mb 0.00 in0.0 mm 0.00 in0.0 mm 0.44 in11.2 mm
04:55 PM 69.5°F20.8°C 59.2°F15.1°C 70% 2.0 mph NE3.2 kmh NE 4.0 mph6.4 kmh 30.04 in1017.3 mb 0.00 in0.0 mm 0.00 in0.0 mm 0.44 in11.2 mm
05:00 PM 69.8°F21.0°C 59.1°F15.1°C 69% 2.0 mph NE3.2 kmh NE 3.0 mph4.8 kmh 30.04 in1017.3 mb 0.00 in0.0 mm 0.00 in0.0 mm 0.44 in11.2 mm
05:05 PM 69.7°F20.9°C 59.0°F15.0°C 69% 2.0 mph NE3.2 kmh NE 3.0 mph4.8 kmh 30.04 in1017.3 mb 0.00 in0.0 mm 0.00 in0.0 mm 0.44 in11.2 mm
05:10 PM 69.5°F20.8°C 58.8°F14.9°C 69% 2.0 mph NNE3.2 kmh NNE 3.0 mph4.8 kmh 30.04 in1017.3 mb 0.00 in0.0 mm 0.00 in0.0 mm 0.44 in11.2 mm
05:15 PM 69.2°F20.7°C 58.5°F14.7°C 69% Calm Calm 3.0 mph4.8 kmh 30.04 in1017.3 mb 0.00 in0.0 mm 0.00 in0.0 mm 0.44 in11.2 mm
05:20 PM 69.1°F20.6°C 58.4°F14.7°C 69% 1.0 mph N1.6 kmh N 2.0 mph3.2 kmh 30.04 in1017.3 mb 0.00 in0.0 mm 0.00 in0.0 mm 0.44 in11.2 mm
05:25 PM 69.1°F20.6°C 58.8°F14.9°C 70% 1.0 mph E1.6 kmh E 3.0 mph4.8 kmh 30.04 in1017.3 mb 0.00 in0.0 mm 0.00 in0.0 mm 0.44 in11.2 mm
05:30 PM 69.0°F20.6°C 59.1°F15.1°C 71% 2.0 mph ESE3.2 kmh ESE 3.0 mph4.8 kmh 30.04 in1017.3 mb 0.00 in0.0 mm 0.00 in0.0 mm 0.44 in11.2 mm
05:35 PM 69.1°F20.6°C 58.8°F14.9°C 70% 1.0 mph ESE1.6 kmh ESE 3.0 mph4.8 kmh 30.04 in1017.3 mb 0.00 in0.0 mm 0.00 in0.0 mm 0.44 in11.2 mm
05:40 PM 69.1°F20.6°C 59.2°F15.1°C 71% Calm Calm 3.0 mph4.8 kmh 30.04 in1017.3 mb 0.00 in0.0 mm 0.00 in0.0 mm 0.44 in11.2 mm
05:45 PM 69.4°F20.8°C 59.9°F15.5°C 72% 2.0 mph S3.2 kmh S 4.0 mph6.4 kmh 30.04 in1017.3 mb 0.00 in0.0 mm 0.00 in0.0 mm 0.44 in11.2 mm
05:50 PM 69.6°F20.9°C 60.1°F15.6°C 72% 2.0 mph SE3.2 kmh SE 4.0 mph6.4 kmh 30.04 in1017.3 mb 0.00 in0.0 mm 0.00 in0.0 mm 0.44 in11.2 mm
05:55 PM 69.3°F20.7°C 59.8°F15.4°C 72% 1.0 mph SE1.6 kmh SE 3.0 mph4.8 kmh 30.04 in1017.3 mb 0.00 in0.0 mm 0.00 in0.0 mm 0.44 in11.2 mm
06:00 PM 68.9°F20.5°C 59.4°F15.2°C 72% 1.0 mph SE1.6 kmh SE 4.0 mph6.4 kmh 30.04 in1017.3 mb 0.00 in0.0 mm 0.00 in0.0 mm 0.44 in11.2 mm
06:05 PM 68.7°F20.4°C 59.6°F15.3°C 73% 2.0 mph ESE3.2 kmh ESE 3.0 mph4.8 kmh 30.05 in1017.6 mb 0.00 in0.0 mm 0.00 in0.0 mm 0.44 in11.2 mm
06:10 PM 68.3°F20.2°C 59.6°F15.3°C 74% 1.0 mph ESE1.6 kmh ESE 3.0 mph4.8 kmh 30.05 in1017.6 mb 0.00 in0.0 mm 0.00 in0.0 mm 0.44 in11.2 mm
06:15 PM 68.1°F20.1°C 60.2°F15.7°C 76% 1.0 mph ESE1.6 kmh ESE 2.0 mph3.2 kmh 30.05 in1017.6 mb 0.00 in0.0 mm 0.00 in0.0 mm 0.44 in11.2 mm
06:20 PM 67.7°F19.8°C 59.8°F15.4°C 76% 1.0 mph ESE1.6 kmh ESE 2.0 mph3.2 kmh 30.05 in1017.6 mb 0.00 in0.0 mm 0.00 in0.0 mm 0.44 in11.2 mm
06:25 PM 67.4°F19.7°C 59.9°F15.5°C 77% 1.0 mph ESE1.6 kmh ESE 2.0 mph3.2 kmh 30.05 in1017.6 mb 0.00 in0.0 mm 0.00 in0.0 mm 0.44 in11.2 mm
06:30 PM 67.2°F19.6°C 59.7°F15.4°C 77% Calm Calm 2.0 mph3.2 kmh 30.05 in1017.6 mb 0.00 in0.0 mm 0.00 in0.0 mm 0.44 in11.2 mm
06:35 PM 67.0°F19.4°C 59.9°F15.5°C 78% Calm Calm 3.0 mph4.8 kmh 30.06 in1017.9 mb 0.00 in0.0 mm 0.00 in0.0 mm 0.44 in11.2 mm
06:40 PM 66.7°F19.3°C 59.6°F15.3°C 78% Calm Calm 2.0 mph3.2 kmh 30.06 in1017.9 mb 0.00 in0.0 mm 0.00 in0.0 mm 0.44 in11.2 mm
06:45 PM 66.6°F19.2°C 59.5°F15.3°C 78% 1.0 mph SE1.6 kmh SE 2.0 mph3.2 kmh 30.05 in1017.6 mb 0.00 in0.0 mm 0.00 in0.0 mm 0.44 in11.2 mm
06:50 PM 66.1°F18.9°C 59.7°F15.4°C 80% Calm Calm 2.0 mph3.2 kmh 30.05 in1017.6 mb 0.00 in0.0 mm 0.00 in0.0 mm 0.44 in11.2 mm
06:55 PM 65.9°F18.8°C 59.5°F15.3°C 80% 1.0 mph SE1.6 kmh SE 1.0 mph1.6 kmh 30.06 in1017.9 mb 0.00 in0.0 mm 0.00 in0.0 mm 0.44 in11.2 mm
07:00 PM 65.8°F18.8°C 59.4°F15.2°C 80% Calm Calm 2.0 mph3.2 kmh 30.06 in1017.9 mb 0.00 in0.0 mm 0.00 in0.0 mm 0.44 in11.2 mm
07:05 PM 65.6°F18.7°C 59.6°F15.3°C 81% Calm Calm 2.0 mph3.2 kmh 30.06 in1017.9 mb 0.00 in0.0 mm 0.00 in0.0 mm 0.44 in11.2 mm
07:10 PM 65.4°F18.6°C 59.4°F15.2°C 81% Calm Calm 2.0 mph3.2 kmh 30.06 in1017.9 mb 0.00 in0.0 mm 0.00 in0.0 mm 0.44 in11.2 mm
07:15 PM 65.2°F18.4°C 59.2°F15.1°C 81% 1.0 mph SE1.6 kmh SE 2.0 mph3.2 kmh 30.07 in1018.3 mb 0.00 in0.0 mm 0.00 in0.0 mm 0.44 in11.2 mm
07:20 PM 64.7°F18.2°C 59.0°F15.0°C 82% 3.0 mph ESE4.8 kmh ESE 4.0 mph6.4 kmh 30.07 in1018.3 mb 0.00 in0.0 mm 0.00 in0.0 mm 0.44 in11.2 mm
07:25 PM 64.0°F17.8°C 58.7°F14.8°C 83% 2.0 mph ESE3.2 kmh ESE 3.0 mph4.8 kmh 30.07 in1018.3 mb 0.00 in0.0 mm 0.00 in0.0 mm 0.44 in11.2 mm
07:30 PM 63.6°F17.6°C 58.6°F14.8°C 84% 1.0 mph SE1.6 kmh SE 4.0 mph6.4 kmh 30.07 in1018.3 mb 0.00 in0.0 mm 0.00 in0.0 mm 0.44 in11.2 mm
07:35 PM 63.4°F17.4°C 58.4°F14.7°C 84% 2.0 mph E3.2 kmh E 3.0 mph4.8 kmh 30.07 in1018.3 mb 0.00 in0.0 mm 0.00 in0.0 mm 0.44 in11.2 mm
07:40 PM 63.4°F17.4°C 58.8°F14.9°C 85% 4.0 mph E6.4 kmh E 5.0 mph8.0 kmh 30.07 in1018.3 mb 0.00 in0.0 mm 0.00 in0.0 mm 0.44 in11.2 mm
07:45 PM 63.4°F17.4°C 58.8°F14.9°C 85% 2.0 mph E3.2 kmh E 5.0 mph8.0 kmh 30.07 in1018.3 mb 0.00 in0.0 mm 0.00 in0.0 mm 0.44 in11.2 mm
07:50 PM 63.4°F17.4°C 59.1°F15.1°C 86% Calm Calm 3.0 mph4.8 kmh 30.07 in1018.3 mb 0.00 in0.0 mm 0.00 in0.0 mm 0.44 in11.2 mm
07:55 PM 63.5°F17.5°C 59.2°F15.1°C 86% 4.0 mph ESE6.4 kmh ESE 4.0 mph6.4 kmh 30.07 in1018.3 mb 0.00 in0.0 mm 0.00 in0.0 mm 0.44 in11.2 mm
08:00 PM 63.6°F17.6°C 59.3°F15.2°C 86% 1.0 mph SE1.6 kmh SE 3.0 mph4.8 kmh 30.08 in1018.6 mb 0.00 in0.0 mm 0.00 in0.0 mm 0.44 in11.2 mm
08:05 PM 63.5°F17.5°C 58.9°F14.9°C 85% Calm Calm 2.0 mph3.2 kmh 30.07 in1018.3 mb 0.00 in0.0 mm 0.00 in0.0 mm 0.44 in11.2 mm
08:10 PM 63.5°F17.5°C 58.9°F14.9°C 85% 1.0 mph SE1.6 kmh SE 2.0 mph3.2 kmh 30.07 in1018.3 mb 0.00 in0.0 mm 0.00 in0.0 mm 0.44 in11.2 mm
08:15 PM 63.5°F17.5°C 59.2°F15.1°C 86% 2.0 mph SSE3.2 kmh SSE 2.0 mph3.2 kmh 30.07 in1018.3 mb 0.00 in0.0 mm 0.00 in0.0 mm 0.44 in11.2 mm
08:20 PM 63.6°F17.6°C 59.3°F15.2°C 86% 1.0 mph SSE1.6 kmh SSE 2.0 mph3.2 kmh 30.07 in1018.3 mb 0.00 in0.0 mm 0.00 in0.0 mm 0.44 in11.2 mm
08:25 PM 63.4°F17.4°C 59.1°F15.1°C 86% 2.0 mph SE3.2 kmh SE 3.0 mph4.8 kmh 30.08 in1018.6 mb 0.00 in0.0 mm 0.00 in0.0 mm 0.44 in11.2 mm
08:30 PM 63.3°F17.4°C 59.0°F15.0°C 86% 1.0 mph SSE1.6 kmh SSE 3.0 mph4.8 kmh 30.08 in1018.6 mb 0.00 in0.0 mm 0.00 in0.0 mm 0.44 in11.2 mm
08:35 PM 63.2°F17.3°C 58.9°F14.9°C 86% Calm Calm 3.0 mph4.8 kmh 30.08 in1018.6 mb 0.00 in0.0 mm 0.00 in0.0 mm 0.44 in11.2 mm
08:40 PM 63.2°F17.3°C 58.9°F14.9°C 86% 2.0 mph SSE3.2 kmh SSE 3.0 mph4.8 kmh 30.08 in1018.6 mb 0.00 in0.0 mm 0.00 in0.0 mm 0.44 in11.2 mm
08:45 PM 63.2°F17.3°C 58.9°F14.9°C 86% Calm Calm 2.0 mph3.2 kmh 30.08 in1018.6 mb 0.00 in0.0 mm 0.00 in0.0 mm 0.44 in11.2 mm
08:50 PM 63.2°F17.3°C 58.9°F14.9°C 86% Calm Calm 2.0 mph3.2 kmh 30.08 in1018.6 mb 0.00 in0.0 mm 0.00 in0.0 mm 0.44 in11.2 mm
08:55 PM 63.2°F17.3°C 58.9°F14.9°C 86% Calm Calm 2.0 mph3.2 kmh 30.08 in1018.6 mb 0.00 in0.0 mm 0.00 in0.0 mm 0.44 in11.2 mm
09:00 PM 63.1°F17.3°C 58.8°F14.9°C 86% Calm Calm 3.0 mph4.8 kmh 30.08 in1018.6 mb 0.00 in0.0 mm 0.00 in0.0 mm 0.44 in11.2 mm
09:05 PM 63.2°F17.3°C 58.9°F14.9°C 86% 2.0 mph SE3.2 kmh SE 2.0 mph3.2 kmh 30.08 in1018.6 mb 0.00 in0.0 mm 0.00 in0.0 mm 0.44 in11.2 mm
09:10 PM 63.3°F17.4°C 59.0°F15.0°C 86% 2.0 mph SE3.2 kmh SE 2.0 mph3.2 kmh 30.08 in1018.6 mb 0.00 in0.0 mm 0.00 in0.0 mm 0.44 in11.2 mm
09:15 PM 63.2°F17.3°C 58.9°F14.9°C 86% 2.0 mph SE3.2 kmh SE 3.0 mph4.8 kmh 30.08 in1018.6 mb 0.00 in0.0 mm 0.00 in0.0 mm 0.44 in11.2 mm
09:20 PM 63.1°F17.3°C 58.8°F14.9°C 86% Calm Calm 3.0 mph4.8 kmh 30.08 in1018.6 mb 0.00 in0.0 mm 0.00 in0.0 mm 0.44 in11.2 mm
09:25 PM 63.1°F17.3°C 58.8°F14.9°C 86% 1.0 mph SE1.6 kmh SE 2.0 mph3.2 kmh 30.08 in1018.6 mb 0.00 in0.0 mm 0.00 in0.0 mm 0.44 in11.2 mm
09:30 PM 63.0°F17.2°C 58.7°F14.8°C 86% Calm Calm 2.0 mph3.2 kmh 30.08 in1018.6 mb 0.00 in0.0 mm 0.00 in0.0 mm 0.44 in11.2 mm
09:35 PM 63.1°F17.3°C 58.8°F14.9°C 86% 1.0 mph SE1.6 kmh SE 2.0 mph3.2 kmh 30.08 in1018.6 mb 0.00 in0.0 mm 0.00 in0.0 mm 0.44 in11.2 mm
09:40 PM 63.0°F17.2°C 58.7°F14.8°C 86% Calm Calm 2.0 mph3.2 kmh 30.08 in1018.6 mb 0.00 in0.0 mm 0.00 in0.0 mm 0.44 in11.2 mm
09:45 PM 62.9°F17.2°C 58.6°F14.8°C 86% 1.0 mph SE1.6 kmh SE 1.0 mph1.6 kmh 30.08 in1018.6 mb 0.00 in0.0 mm 0.00 in0.0 mm 0.44 in11.2 mm
09:50 PM 62.7°F17.1°C 58.4°F14.7°C 86% Calm Calm 2.0 mph3.2 kmh 30.08 in1018.6 mb 0.00 in0.0 mm 0.00 in0.0 mm 0.44 in11.2 mm
09:55 PM 62.5°F16.9°C 58.2°F14.6°C 86% Calm Calm 2.0 mph3.2 kmh 30.08 in1018.6 mb 0.00 in0.0 mm 0.00 in0.0 mm 0.44 in11.2 mm
10:00 PM 62.4°F16.9°C 58.4°F14.7°C 87% Calm Calm 3.0 mph4.8 kmh 30.08 in1018.6 mb 0.00 in0.0 mm 0.00 in0.0 mm 0.44 in11.2 mm
10:05 PM 62.2°F16.8°C 58.2°F14.6°C 87% 2.0 mph SSE3.2 kmh SSE 2.0 mph3.2 kmh 30.07 in1018.3 mb 0.00 in0.0 mm 0.00 in0.0 mm 0.44 in11.2 mm
10:10 PM 62.1°F16.7°C 58.1°F14.5°C 87% 1.0 mph SSE1.6 kmh SSE 2.0 mph3.2 kmh 30.08 in1018.6 mb 0.00 in0.0 mm 0.00 in0.0 mm 0.44 in11.2 mm
10:15 PM 62.0°F16.7°C 58.0°F14.4°C 87% Calm Calm 2.0 mph3.2 kmh 30.08 in1018.6 mb 0.00 in0.0 mm 0.00 in0.0 mm 0.44 in11.2 mm
10:20 PM 61.9°F16.6°C 57.9°F14.4°C 87% Calm Calm 2.0 mph3.2 kmh 30.08 in1018.6 mb 0.00 in0.0 mm 0.00 in0.0 mm 0.44 in11.2 mm
10:25 PM 61.6°F16.4°C 57.6°F14.2°C 87% 2.0 mph SSE3.2 kmh SSE 3.0 mph4.8 kmh 30.08 in1018.6 mb 0.00 in0.0 mm 0.00 in0.0 mm 0.44 in11.2 mm
10:30 PM 61.5°F16.4°C 57.9°F14.4°C 88% 2.0 mph ESE3.2 kmh ESE 3.0 mph4.8 kmh 30.07 in1018.3 mb 0.00 in0.0 mm 0.00 in0.0 mm 0.44 in11.2 mm
10:35 PM 61.4°F16.3°C 57.8°F14.3°C 88% 2.0 mph SSE3.2 kmh SSE 3.0 mph4.8 kmh 30.08 in1018.6 mb 0.00 in0.0 mm 0.00 in0.0 mm 0.44 in11.2 mm
10:40 PM 61.3°F16.3°C 57.7°F14.3°C 88% Calm Calm 3.0 mph4.8 kmh 30.08 in1018.6 mb 0.00 in0.0 mm 0.00 in0.0 mm 0.44 in11.2 mm
10:45 PM 61.3°F16.3°C 57.7°F14.3°C 88% Calm Calm 2.0 mph3.2 kmh 30.08 in1018.6 mb 0.00 in0.0 mm 0.00 in0.0 mm 0.44 in11.2 mm
10:50 PM 61.2°F16.2°C 57.6°F14.2°C 88% Calm Calm 2.0 mph3.2 kmh 30.08 in1018.6 mb 0.00 in0.0 mm 0.00 in0.0 mm 0.44 in11.2 mm
10:55 PM 61.1°F16.2°C 57.5°F14.2°C 88% Calm Calm 1.0 mph1.6 kmh 30.08 in1018.6 mb 0.00 in0.0 mm 0.00 in0.0 mm 0.44 in11.2 mm
11:00 PM 61.0°F16.1°C 57.4°F14.1°C 88% Calm Calm 1.0 mph1.6 kmh 30.08 in1018.6 mb 0.00 in0.0 mm 0.00 in0.0 mm 0.44 in11.2 mm
11:05 PM 60.9°F16.1°C 57.3°F14.1°C 88% Calm Calm -- 30.08 in1018.6 mb 0.00 in0.0 mm 0.00 in0.0 mm 0.34 in8.6 mm
11:10 PM 60.9°F16.1°C 57.3°F14.1°C 88% Calm Calm -- 30.08 in1018.6 mb 0.00 in0.0 mm 0.00 in0.0 mm 0.34 in8.6 mm
11:15 PM 60.9°F16.1°C 57.3°F14.1°C 88% Calm Calm -- 30.08 in1018.6 mb 0.00 in0.0 mm 0.00 in0.0 mm 0.34 in8.6 mm
11:20 PM 60.8°F16.0°C 57.2°F14.0°C 88% Calm Calm -- 30.08 in1018.6 mb 0.00 in0.0 mm 0.00 in0.0 mm 0.34 in8.6 mm
11:25 PM 60.7°F15.9°C 56.8°F13.8°C 87% Calm Calm -- 30.08 in1018.6 mb 0.00 in0.0 mm 0.00 in0.0 mm 0.34 in8.6 mm
11:30 PM 60.6°F15.9°C 56.7°F13.7°C 87% 1.0 mph SE1.6 kmh SE 2.0 mph3.2 kmh 30.08 in1018.6 mb 0.00 in0.0 mm 0.00 in0.0 mm 0.34 in8.6 mm
11:35 PM 60.4°F15.8°C 56.5°F13.6°C 87% Calm Calm 1.0 mph1.6 kmh 30.08 in1018.6 mb 0.00 in0.0 mm 0.00 in0.0 mm 0.34 in8.6 mm
11:40 PM 60.3°F15.7°C 56.7°F13.7°C 88% 2.0 mph SE3.2 kmh SE 2.0 mph3.2 kmh 30.08 in1018.6 mb 0.00 in0.0 mm 0.00 in0.0 mm 0.34 in8.6 mm
11:45 PM 60.2°F15.7°C 56.6°F13.7°C 88% Calm Calm 2.0 mph3.2 kmh 30.08 in1018.6 mb 0.00 in0.0 mm 0.00 in0.0 mm 0.34 in8.6 mm
11:50 PM 59.9°F15.5°C 56.6°F13.7°C 89% 2.0 mph SSE3.2 kmh SSE 3.0 mph4.8 kmh 30.08 in1018.6 mb 0.00 in0.0 mm 0.00 in0.0 mm 0.34 in8.6 mm
11:55 PM 59.6°F15.3°C 56.3°F13.5°C 89% 2.0 mph SE3.2 kmh SE 3.0 mph4.8 kmh 30.08 in1018.6 mb 0.00 in0.0 mm 0.00 in0.0 mm 0.34 in8.6 mm